Passumpsic, Vermont
Current Conditions -  °F | °C
As of 8:15 AM on Thursday 18 Dec 2014 (Local Time) from KCDA Reporting Station
Light Rain Light Rain  
Wind Chill: 26°   Ceiling: 1800
Heat Index: 32°   Visibility: 10mi
Dew Point: 28°   Wind: 6mph
Humidity: 87%   Direction: 270°W
Pressure: 29.73"   Gusts: NA
Location:  44.38°N, 72.03°W
Report Text: KCDA 181315Z AUTO 27005KT 10SM -RA OVC018 00/M02 A2973 RMK AO2 T00001020
Loading
Personal Weather Stations






























Interactive Weather Map New forecast layout! Learn more

10-Day Weather Forecast

Advertisements
Track Severe Weather on mobile